createdAt,value
2018-02-24T00:01:01.058Z,102812.42
2018-02-24T00:03:28.756Z,102812.92
2018-02-24T00:05:56.555Z,102810.09
2018-02-24T00:08:24.249Z,102815.09
2018-02-24T00:10:51.959Z,102811.48
2018-02-24T00:13:19.751Z,102816.86
2018-02-24T00:15:47.477Z,102820.40
2018-02-24T00:18:15.170Z,102820.23
2018-02-24T00:20:42.908Z,102832.75
2018-02-24T00:23:10.610Z,102828.16
2018-02-24T00:25:38.356Z,102831.25
2018-02-24T00:28:06.054Z,102832.20
2018-02-24T00:30:33.800Z,102823.89
2018-02-24T00:33:01.521Z,102819.90
2018-02-24T00:35:29.241Z,102826.48
2018-02-24T00:37:56.957Z,102825.94
2018-02-24T00:40:24.656Z,102828.26
2018-02-24T00:42:52.373Z,102823.38
2018-02-24T00:45:20.101Z,102820.51
2018-02-24T00:47:47.818Z,102814.73
2018-02-24T00:50:15.615Z,102806.33
2018-02-24T00:52:43.388Z,102805.15
2018-02-24T00:55:11.084Z,102810.75
2018-02-24T00:57:38.824Z,102812.47
2018-02-24T01:00:06.513Z,102814.19
2018-02-24T01:02:34.212Z,102810.97
2018-02-24T01:05:02.000Z,102823.48
2018-02-24T01:07:29.693Z,102815.06
2018-02-24T01:09:57.417Z,102814.84
2018-02-24T01:12:25.113Z,102808.74
2018-02-24T01:14:52.841Z,102812.87
2018-02-24T01:17:20.523Z,102814.81
2018-02-24T01:19:48.284Z,102813.22
2018-02-24T01:22:16.052Z,102813.48
2018-02-24T01:24:43.768Z,102815.87
2018-02-24T01:27:11.484Z,102810.19
2018-02-24T01:29:39.222Z,102811.64
2018-02-24T01:32:06.922Z,102811.41
2018-02-24T01:34:34.685Z,102809.08
2018-02-24T01:37:02.409Z,102815.38
2018-02-24T01:39:30.098Z,102807.94
2018-02-24T01:41:57.869Z,102805.95
2018-02-24T01:44:25.565Z,102810.31
2018-02-24T01:46:53.280Z,102809.98
2018-02-24T01:49:21.073Z,102813.58
2018-02-24T01:51:48.900Z,102812.81
2018-02-24T01:54:16.593Z,102815.75
2018-02-24T01:56:44.355Z,102811.92
2018-02-24T01:59:12.141Z,102811.03
2018-02-24T02:01:39.901Z,102808.42
2018-02-24T02:04:07.601Z,102808.33
2018-02-24T02:06:35.419Z,102808.27
2018-02-24T02:09:03.188Z,102811.20
2018-02-24T02:11:30.937Z,102813.22
2018-02-24T02:13:58.628Z,102818.80
2018-02-24T02:16:26.330Z,102819.15
2018-02-24T02:18:54.143Z,102817.88
2018-02-24T02:21:21.922Z,102821.70
2018-02-24T02:23:49.645Z,102818.80
2018-02-24T02:26:17.333Z,102816.25
2018-02-24T02:28:45.077Z,102818.91
2018-02-24T02:31:12.784Z,102813.58
2018-02-24T02:33:40.505Z,102815.36
2018-02-24T02:36:08.298Z,102813.86
2018-02-24T02:38:36.019Z,102820.83
2018-02-24T02:41:03.735Z,102817.22
2018-02-24T02:43:31.492Z,102821.64
2018-02-24T02:45:59.262Z,102822.20
2018-02-24T02:48:27.025Z,102827.45
2018-02-24T02:50:54.745Z,102832.33
2018-02-24T02:53:22.434Z,102830.34
2018-02-24T02:55:50.149Z,102833.87
2018-02-24T02:58:17.836Z,102823.88
2018-02-24T03:00:45.544Z,102829.10
2018-02-24T03:03:13.304Z,102834.36
2018-02-24T03:05:41.073Z,102834.06
2018-02-24T03:08:08.759Z,102841.45
2018-02-24T03:10:36.492Z,102838.82
2018-02-24T03:13:04.172Z,102843.98
2018-02-24T03:15:31.929Z,102840.75
2018-02-24T03:17:59.631Z,102843.07
2018-02-24T03:20:27.355Z,102852.22
2018-02-24T03:22:55.089Z,102850.88
2018-02-24T03:25:22.768Z,102846.43
2018-02-24T03:27:50.550Z,102858.22
2018-02-24T03:30:18.313Z,102854.72
2018-02-24T03:32:46.077Z,102864.91
2018-02-24T03:35:13.844Z,102875.00
2018-02-24T03:37:41.603Z,102868.09
2018-02-24T03:40:09.304Z,102870.46
2018-02-24T03:42:36.988Z,102868.56
2018-02-24T03:45:04.695Z,102876.78
2018-02-24T03:47:32.380Z,102873.10
2018-02-24T03:50:00.089Z,102877.59
2018-02-24T03:52:27.777Z,102885.40
2018-02-24T03:54:55.552Z,102883.20
2018-02-24T03:57:23.236Z,102893.50
2018-02-24T03:59:50.984Z,102886.34
2018-02-24T04:02:18.671Z,102894.01
2018-02-24T04:04:46.384Z,102895.73
2018-02-24T04:07:14.065Z,102891.39
2018-02-24T04:09:41.744Z,102906.27
2018-02-24T04:12:09.444Z,102910.39
2018-02-24T04:14:37.120Z,102912.12
2018-02-24T04:17:04.816Z,102923.11
2018-02-24T04:19:32.492Z,102920.73
2018-02-24T04:22:00.192Z,102928.23
2018-02-24T04:24:27.877Z,102931.02
2018-02-24T04:26:55.584Z,102926.54
2018-02-24T04:29:23.349Z,102924.70
2018-02-24T04:31:51.052Z,102925.05
2018-02-24T04:34:18.732Z,102925.31
2018-02-24T04:36:46.434Z,102938.37
2018-02-24T04:39:14.208Z,102935.23
2018-02-24T04:41:41.978Z,102935.84
2018-02-24T04:44:09.656Z,102935.19
2018-02-24T04:46:37.327Z,102930.20
2018-02-24T04:49:05.032Z,102942.47
2018-02-24T04:51:32.708Z,102941.98
2018-02-24T04:54:00.408Z,102942.77
2018-02-24T04:56:28.084Z,102949.01
2018-02-24T04:58:55.817Z,102954.67
2018-02-24T05:01:23.584Z,102956.23
2018-02-24T05:03:51.445Z,102964.56
2018-02-24T05:06:19.123Z,102968.28
2018-02-24T05:08:46.875Z,102972.72
2018-02-24T05:11:14.557Z,102975.16
2018-02-24T05:13:42.313Z,102980.55
2018-02-24T05:16:10.076Z,102978.38
2018-02-24T05:18:37.841Z,102983.80
2018-02-24T05:21:05.540Z,102984.12
2018-02-24T05:23:33.272Z,102988.49
2018-02-24T05:26:01.033Z,102986.23
2018-02-24T05:28:28.764Z,102994.36
2018-02-24T05:30:56.565Z,102995.18
2018-02-24T05:33:24.256Z,102994.00
2018-02-24T05:35:51.987Z,102998.48
2018-02-24T05:38:19.668Z,102998.10
2018-02-24T05:40:47.382Z,103000.97
2018-02-24T05:43:15.084Z,102999.09
2018-02-24T05:45:42.848Z,103004.19
2018-02-24T05:48:10.612Z,103008.90
2018-02-24T05:50:38.380Z,103012.44
2018-02-24T05:53:06.056Z,103018.93
2018-02-24T05:55:33.812Z,103015.27
2018-02-24T05:58:01.524Z,103018.42
2018-02-24T06:00:29.208Z,103017.45
2018-02-24T06:02:56.999Z,103022.00
2018-02-24T06:05:24.675Z,103024.84
2018-02-24T06:07:52.376Z,103023.44
2018-02-24T06:10:20.061Z,103020.52
2018-02-24T06:12:47.885Z,103023.44
2018-02-24T06:15:15.552Z,103027.61
2018-02-24T06:17:43.252Z,103020.13
2018-02-24T06:20:10.931Z,103026.44
2018-02-24T06:22:38.636Z,103021.72
2018-02-24T06:25:06.328Z,103027.55
2018-02-24T06:27:34.048Z,103022.22
2018-02-24T06:30:01.804Z,103029.20
2018-02-24T06:32:29.509Z,103031.47
2018-02-24T06:34:57.192Z,103030.54
2018-02-24T06:37:24.912Z,103030.54
2018-02-24T06:39:52.592Z,103036.02
2018-02-24T06:42:20.273Z,103036.78
2018-02-24T06:44:47.972Z,103032.89
2018-02-24T06:47:15.758Z,103030.70
2018-02-24T06:49:43.456Z,103031.02
2018-02-24T06:52:11.140Z,103027.64
2018-02-24T06:54:38.890Z,103037.89
2018-02-24T06:57:06.567Z,103031.08
2018-02-24T06:59:34.385Z,103032.89
2018-02-24T07:02:02.073Z,103043.22
2018-02-24T07:04:29.813Z,103049.53
2018-02-24T07:06:57.574Z,103053.42
2018-02-24T07:09:25.272Z,103068.70
2018-02-24T07:11:52.956Z,103070.77
2018-02-24T07:14:20.684Z,103069.66
2018-02-24T07:16:48.432Z,103068.30
2018-02-24T07:19:16.196Z,103068.58
2018-02-24T07:21:43.960Z,103075.02
2018-02-24T07:24:11.769Z,103073.36
2018-02-24T07:26:39.705Z,103082.12
2018-02-24T07:29:07.379Z,103077.75
2018-02-24T07:31:35.127Z,103072.55
2018-02-24T07:34:02.894Z,103091.45
2018-02-24T07:36:30.604Z,103085.25
2018-02-24T07:38:58.320Z,103084.56
2018-02-24T07:41:26.084Z,103085.91
2018-02-24T07:43:53.769Z,103095.00
2018-02-24T07:46:21.613Z,103079.41
2018-02-24T07:48:49.292Z,103083.53
2018-02-24T07:51:17.048Z,103091.13
2018-02-24T07:53:44.756Z,103077.70
2018-02-24T07:56:12.444Z,103086.58
2018-02-24T07:58:40.240Z,103088.14
2018-02-24T08:01:07.920Z,103079.42
2018-02-24T08:03:35.625Z,103090.56
2018-02-24T08:06:03.317Z,103083.63
2018-02-24T08:08:31.099Z,103092.84
2018-02-24T08:10:58.868Z,103123.92
2018-02-24T08:13:26.568Z,103083.47
2018-02-24T08:15:54.246Z,103079.20
2018-02-24T08:18:21.953Z,103089.62
2018-02-24T08:20:49.720Z,103115.66
2018-02-24T08:23:17.457Z,103109.05
2018-02-24T08:25:45.134Z,103105.77
2018-02-24T08:28:12.808Z,103110.70
2018-02-24T08:30:40.524Z,103113.38
2018-02-24T08:33:08.248Z,103131.25
2018-02-24T08:35:35.948Z,103125.47
2018-02-24T08:38:03.624Z,103119.15
2018-02-24T08:40:31.321Z,103121.54
2018-02-24T08:42:59.012Z,103126.64
2018-02-24T08:45:26.760Z,103118.13
2018-02-24T08:47:54.530Z,103129.62
2018-02-24T08:50:22.256Z,103127.32
2018-02-24T08:52:50.015Z,103120.59
2018-02-24T08:55:17.721Z,103121.70
2018-02-24T08:57:45.416Z,103122.31
2018-02-24T09:00:13.152Z,103120.16
2018-02-24T09:02:40.856Z,103134.17
2018-02-24T09:05:08.541Z,103120.39
2018-02-24T09:07:36.344Z,103118.30
2018-02-24T09:10:04.025Z,103110.92
2018-02-24T09:12:31.771Z,103130.18
2018-02-24T09:14:59.547Z,103115.92
2018-02-24T09:17:27.304Z,103130.96
2018-02-24T09:19:54.979Z,103112.27
2018-02-24T09:22:22.704Z,103125.13
2018-02-24T09:24:50.379Z,103123.09
2018-02-24T09:27:18.085Z,103130.63
2018-02-24T09:29:45.760Z,103128.52
2018-02-24T09:32:13.488Z,103131.67
2018-02-24T09:34:41.163Z,103129.73
2018-02-24T09:37:08.917Z,103134.96
2018-02-24T09:39:36.596Z,103135.50
2018-02-24T09:42:04.317Z,103135.78
2018-02-24T09:44:32.008Z,103137.19
2018-02-24T09:46:59.781Z,103134.23
2018-02-24T09:49:27.539Z,103131.28
2018-02-24T09:51:55.137Z,103138.59
2018-02-24T09:54:22.902Z,103133.86
2018-02-24T09:56:50.582Z,103138.28
2018-02-24T09:59:18.396Z,103152.90
2018-02-24T10:01:46.168Z,103161.34
2018-02-24T10:04:13.864Z,103168.19
2018-02-24T10:06:41.465Z,103168.45
2018-02-24T10:09:09.164Z,103171.80
2018-02-24T10:11:36.920Z,103166.91
2018-02-24T10:14:04.624Z,103164.91
2018-02-24T10:16:32.349Z,103175.30
2018-02-24T10:19:00.777Z,103186.19
2018-02-24T10:21:28.433Z,103192.14
2018-02-24T10:23:56.112Z,103185.96
2018-02-24T10:26:23.818Z,103175.59
2018-02-24T10:28:51.508Z,103174.80
2018-02-24T10:31:19.207Z,103170.48
2018-02-24T10:33:46.896Z,103172.10
2018-02-24T10:36:14.677Z,103161.65
2018-02-24T10:38:42.444Z,103183.41
2018-02-24T10:41:10.148Z,103178.23
2018-02-24T10:43:37.837Z,103182.89
2018-02-24T10:46:05.537Z,103176.75
2018-02-24T10:48:33.347Z,103184.20
2018-02-24T10:51:01.036Z,103179.36
2018-02-24T10:53:28.736Z,103183.20
2018-02-24T10:55:56.460Z,103184.58
2018-02-24T10:58:24.155Z,103177.65
2018-02-24T11:00:51.851Z,103185.02
2018-02-24T11:03:19.552Z,103190.48
2018-02-24T11:05:47.269Z,103178.81
2018-02-24T11:08:14.978Z,103175.86
2018-02-24T11:10:42.784Z,103193.07
2018-02-24T11:13:10.484Z,103189.23
2018-02-24T11:15:38.169Z,103199.13
2018-02-24T11:18:05.872Z,103205.07
2018-02-24T11:20:33.544Z,103193.02
2018-02-24T11:23:01.272Z,103195.56
2018-02-24T11:25:29.070Z,103185.52
2018-02-24T11:27:56.788Z,103183.90
2018-02-24T11:30:24.501Z,103183.77
2018-02-24T11:32:52.208Z,103178.95
2018-02-24T11:35:19.929Z,103184.66
2018-02-24T11:37:47.694Z,103182.66
2018-02-24T11:40:15.401Z,103183.99
2018-02-24T11:42:43.084Z,103181.28
2018-02-24T11:45:10.928Z,103197.81
2018-02-24T11:47:38.596Z,103165.30
2018-02-24T11:50:06.367Z,103174.36
2018-02-24T11:52:34.087Z,103177.90
2018-02-24T11:55:01.784Z,103182.84
2018-02-24T11:57:29.465Z,103182.40
2018-02-24T11:59:57.171Z,103180.03
2018-02-24T12:02:24.898Z,103177.31
2018-02-24T12:04:52.604Z,103169.98
2018-02-24T12:07:20.280Z,103158.14
2018-02-24T12:09:47.981Z,103157.34
2018-02-24T12:12:15.576Z,103163.61
2018-02-24T12:14:43.296Z,103151.63
2018-02-24T12:17:10.896Z,103156.27
2018-02-24T12:19:38.507Z,103155.83
2018-02-24T12:22:06.144Z,103168.06
2018-02-24T12:24:33.749Z,103159.45
2018-02-24T12:27:01.468Z,103159.63
2018-02-24T12:29:29.137Z,103172.70
2018-02-24T12:31:56.797Z,103164.48
2018-02-24T12:34:24.395Z,103165.78
2018-02-24T12:36:52.021Z,103169.06
2018-02-24T12:39:19.625Z,103171.63
2018-02-24T12:41:47.366Z,103161.70
2018-02-24T12:44:14.965Z,103156.36
2018-02-24T12:46:42.840Z,103161.96
2018-02-24T12:49:10.413Z,103156.53
2018-02-24T12:51:38.145Z,103156.42
2018-02-24T12:54:05.848Z,103157.70
2018-02-24T12:56:33.632Z,103170.16
2018-02-24T12:59:01.340Z,103151.76
2018-02-24T13:01:29.064Z,103154.05
2018-02-24T13:03:56.723Z,103148.67
2018-02-24T13:06:24.392Z,103154.34
2018-02-24T13:08:52.101Z,103160.08
2018-02-24T13:11:19.834Z,103159.26
2018-02-24T13:13:47.584Z,103165.72
2018-02-24T13:16:15.348Z,103164.17
2018-02-24T13:18:43.060Z,103161.09
2018-02-24T13:21:10.744Z,103162.70
2018-02-24T13:23:38.448Z,103178.30
2018-02-24T13:26:06.127Z,103159.73
2018-02-24T13:28:33.769Z,103171.91
2018-02-24T13:31:01.449Z,103177.25
2018-02-24T13:33:29.156Z,103178.21
2018-02-24T13:35:56.760Z,103188.11
2018-02-24T13:38:24.464Z,103177.90
2018-02-24T13:40:52.139Z,103172.13
2018-02-24T13:43:19.953Z,103182.63
2018-02-24T13:45:47.723Z,103179.36
2018-02-24T13:48:15.511Z,103207.46
2018-02-24T13:50:43.218Z,103193.20
2018-02-24T13:53:10.900Z,103195.41
2018-02-24T13:55:38.603Z,103205.86
2018-02-24T13:58:06.285Z,103191.59
2018-02-24T14:00:33.989Z,103191.53
2018-02-24T14:03:01.846Z,103188.53
2018-02-24T14:05:29.536Z,103205.28
2018-02-24T14:07:57.212Z,103209.47
2018-02-24T14:10:24.871Z,103191.91
2018-02-24T14:12:52.632Z,103190.35
2018-02-24T14:15:20.398Z,103190.52
2018-02-24T14:17:48.164Z,103194.19
2018-02-24T14:20:15.864Z,103199.52
2018-02-24T14:22:43.596Z,103203.06
2018-02-24T14:25:11.335Z,103186.25
2018-02-24T14:27:39.014Z,103195.41
2018-02-24T14:30:06.715Z,103193.63
2018-02-24T14:32:34.423Z,103190.02
2018-02-24T14:35:02.129Z,103179.52
2018-02-24T14:37:29.812Z,103194.74
2018-02-24T14:39:57.496Z,103197.01
2018-02-24T14:42:25.210Z,103203.55
2018-02-24T14:44:52.892Z,103193.72
2018-02-24T14:47:20.645Z,103192.61
2018-02-24T14:49:48.320Z,103199.59
2018-02-24T14:52:17.405Z,103205.59
2018-02-24T14:54:45.092Z,103194.88
2018-02-24T14:57:12.824Z,103220.68
2018-02-24T14:59:40.509Z,103209.13
2018-02-24T15:02:08.208Z,103213.49
2018-02-24T15:04:35.911Z,103200.31
2018-02-24T15:07:03.623Z,103210.05
2018-02-24T15:09:31.307Z,103210.14
2018-02-24T15:11:59.108Z,103213.36
2018-02-24T15:14:26.793Z,103207.86
2018-02-24T15:16:54.476Z,103212.36
2018-02-24T15:19:22.187Z,103217.00
2018-02-24T15:21:49.973Z,103209.06
2018-02-24T15:24:17.737Z,103227.56
2018-02-24T15:26:45.504Z,103214.09
2018-02-24T15:29:13.213Z,103208.45
2018-02-24T15:31:40.896Z,103214.09
2018-02-24T15:34:08.596Z,103209.22
2018-02-24T15:36:36.280Z,103210.34
2018-02-24T15:39:03.989Z,103211.98
2018-02-24T15:41:31.672Z,103212.59
2018-02-24T15:43:59.376Z,103215.50
2018-02-24T15:46:27.089Z,103235.11
2018-02-24T15:48:54.892Z,103232.78
2018-02-24T15:51:22.636Z,103226.45
2018-02-24T15:53:50.313Z,103226.92
2018-02-24T15:56:18.071Z,103233.55
2018-02-24T15:58:45.840Z,103239.31
2018-02-24T16:01:13.560Z,103242.68
2018-02-24T16:03:41.249Z,103245.12
2018-02-24T16:06:08.949Z,103245.17
2018-02-24T16:08:37.012Z,103255.92
2018-02-24T16:11:04.717Z,103239.20
2018-02-24T16:13:32.430Z,103243.37
2018-02-24T16:16:00.133Z,103248.06
2018-02-24T16:18:27.816Z,103248.41
2018-02-24T16:20:55.517Z,103252.13
2018-02-24T16:23:23.296Z,103247.70
2018-02-24T16:25:51.033Z,103253.75
2018-02-24T16:28:18.712Z,103254.17
2018-02-24T16:30:46.491Z,103262.32
2018-02-24T16:33:14.192Z,103259.74
2018-02-24T16:35:41.920Z,103271.78
2018-02-24T16:38:09.679Z,103263.28
2018-02-24T16:40:37.460Z,103257.50
2018-02-24T16:43:05.211Z,103264.52
2018-02-24T16:45:32.980Z,103262.80
2018-02-24T16:48:00.744Z,103266.62
2018-02-24T16:50:28.516Z,103270.61
2018-02-24T16:52:57.197Z,103266.58
2018-02-24T16:55:25.128Z,103262.56
2018-02-24T16:57:52.839Z,103268.61
2018-02-24T17:00:20.600Z,103273.95
2018-02-24T17:02:48.368Z,103280.48
2018-02-24T17:05:16.134Z,103276.56
2018-02-24T17:07:43.904Z,103280.69
2018-02-24T17:10:11.661Z,103278.87
2018-02-24T17:12:39.440Z,103275.73
2018-02-24T17:15:07.136Z,103284.54
2018-02-24T17:17:34.856Z,103281.68
2018-02-24T17:20:02.562Z,103285.26
2018-02-24T17:22:30.280Z,103294.84
2018-02-24T17:24:58.029Z,103288.96
2018-02-24T17:27:25.816Z,103290.89
2018-02-24T17:29:53.668Z,103296.66
2018-02-24T17:32:21.351Z,103304.50
2018-02-24T17:34:49.050Z,103311.95
2018-02-24T17:37:16.733Z,103309.27
2018-02-24T17:39:44.539Z,103306.03
2018-02-24T17:42:12.220Z,103301.34
2018-02-24T17:44:39.932Z,103302.95
2018-02-24T17:47:07.643Z,103304.18
2018-02-24T17:49:35.365Z,103307.43
2018-02-24T17:52:03.068Z,103312.40
2018-02-24T17:54:30.760Z,103308.91
2018-02-24T17:56:58.470Z,103308.34
2018-02-24T17:59:26.255Z,103310.77
2018-02-24T18:01:53.956Z,103310.64
2018-02-24T18:04:21.640Z,103306.26
2018-02-24T18:06:49.340Z,103309.75
2018-02-24T18:09:17.020Z,103310.32
2018-02-24T18:11:44.784Z,103308.80
2018-02-24T18:14:12.548Z,103317.97
2018-02-24T18:16:40.313Z,103319.43
2018-02-24T18:19:07.991Z,103314.84
2018-02-24T18:21:35.736Z,103316.61
2018-02-24T18:24:03.504Z,103313.64
2018-02-24T18:26:31.206Z,103315.34
2018-02-24T18:28:58.888Z,103318.72
2018-02-24T18:31:26.596Z,103318.39
2018-02-24T18:33:54.280Z,103313.32
2018-02-24T18:36:21.984Z,103322.27
2018-02-24T18:38:49.661Z,103320.55
2018-02-24T18:41:17.384Z,103321.95
2018-02-24T18:43:45.121Z,103320.80
2018-02-24T18:46:12.813Z,103321.36
2018-02-24T18:48:40.521Z,103327.45
2018-02-24T18:51:08.317Z,103320.78
2018-02-24T18:53:36.044Z,103325.16
2018-02-24T18:56:03.725Z,103328.19
2018-02-24T18:58:31.424Z,103331.63
2018-02-24T19:00:59.171Z,103329.20
2018-02-24T19:03:26.884Z,103330.07
2018-02-24T19:05:54.607Z,103328.55
2018-02-24T19:08:22.314Z,103323.13
2018-02-24T19:10:50.000Z,103327.13
2018-02-24T19:13:17.704Z,103326.88
2018-02-24T19:15:45.393Z,103324.89
2018-02-24T19:18:13.126Z,103317.77
2018-02-24T19:20:40.829Z,103321.77
2018-02-24T19:23:08.504Z,103326.84
2018-02-24T19:25:36.209Z,103322.26
2018-02-24T19:28:03.888Z,103325.28
2018-02-24T19:30:31.592Z,103321.48
2018-02-24T19:32:59.312Z,103322.59
2018-02-24T19:35:27.016Z,103318.16
2018-02-24T19:37:54.740Z,103326.41
2018-02-24T19:40:22.444Z,103326.52
2018-02-24T19:42:50.127Z,103325.80
2018-02-24T19:45:17.824Z,103328.53
2018-02-24T19:47:45.509Z,103326.03
2018-02-24T19:50:13.260Z,103331.29
2018-02-24T19:52:40.948Z,103327.14
2018-02-24T19:55:08.688Z,103334.57
2018-02-24T19:57:36.448Z,103334.42
2018-02-24T20:00:04.221Z,103335.13
2018-02-24T20:02:31.934Z,103334.60
2018-02-24T20:04:59.608Z,103333.22
2018-02-24T20:07:27.413Z,103333.59
2018-02-24T20:09:55.088Z,103333.00
2018-02-24T20:12:22.792Z,103327.81
2018-02-24T20:14:50.473Z,103332.99
2018-02-24T20:17:18.273Z,103335.27
2018-02-24T20:19:45.965Z,103343.25
2018-02-24T20:22:13.668Z,103340.08
2018-02-24T20:24:41.359Z,103339.55
2018-02-24T20:27:09.133Z,103334.84
2018-02-24T20:29:36.892Z,103336.56
2018-02-24T20:32:04.572Z,103335.45
2018-02-24T20:34:32.321Z,103332.84
2018-02-24T20:37:00.084Z,103336.16
2018-02-24T20:39:27.789Z,103338.52
2018-02-24T20:41:55.512Z,103336.43
2018-02-24T20:44:23.286Z,103337.14
2018-02-24T20:46:51.053Z,103338.14
2018-02-24T20:49:18.757Z,103343.95
2018-02-24T20:51:46.574Z,103346.88
2018-02-24T20:54:14.344Z,103349.85
2018-02-24T20:56:42.036Z,103349.03
2018-02-24T20:59:09.779Z,103354.30
2018-02-24T21:01:37.493Z,103359.00
2018-02-24T21:04:05.176Z,103356.09
2018-02-24T21:06:32.875Z,103352.20
2018-02-24T21:09:00.557Z,103350.48
2018-02-24T21:11:28.260Z,103349.03
2018-02-24T21:13:55.940Z,103343.88
2018-02-24T21:16:23.640Z,103351.86
2018-02-24T21:18:51.317Z,103350.04
2018-02-24T21:21:19.025Z,103353.13
2018-02-24T21:23:46.814Z,103350.04
2018-02-24T21:26:14.527Z,103357.57
2018-02-24T21:28:42.344Z,103365.36
2018-02-24T21:31:10.113Z,103350.33
2018-02-24T21:33:37.871Z,103363.64
2018-02-24T21:36:05.553Z,103361.95
2018-02-24T21:38:33.257Z,103359.52
2018-02-24T21:41:00.963Z,103359.52
2018-02-24T21:43:28.669Z,103366.33
2018-02-24T21:45:56.392Z,103362.11
2018-02-24T21:48:24.160Z,103365.08
2018-02-24T21:50:51.873Z,103363.02
2018-02-24T21:53:19.583Z,103369.98
2018-02-24T21:55:47.257Z,103366.73
2018-02-24T21:58:14.952Z,103366.02
2018-02-24T22:00:42.633Z,103370.45
2018-02-24T22:03:10.338Z,103368.91
2018-02-24T22:05:38.020Z,103375.47
2018-02-24T22:08:05.772Z,103373.56
2018-02-24T22:10:33.536Z,103378.88
2018-02-24T22:13:01.220Z,103382.90
2018-02-24T22:15:28.932Z,103383.61
2018-02-24T22:17:56.608Z,103386.95
2018-02-24T22:20:24.396Z,103380.91
2018-02-24T22:22:52.101Z,103367.52
2018-02-24T22:25:19.808Z,103367.14
2018-02-24T22:27:47.484Z,103369.70
2018-02-24T22:30:15.196Z,103370.50
2018-02-24T22:32:42.876Z,103373.31
2018-02-24T22:35:10.644Z,103380.55
2018-02-24T22:37:38.324Z,103380.13
2018-02-24T22:40:06.104Z,103382.03
2018-02-24T22:42:33.881Z,103385.81
2018-02-24T22:45:01.571Z,103386.81
2018-02-24T22:47:34.956Z,103389.44
2018-02-24T22:50:02.697Z,103391.23
2018-02-24T22:52:30.462Z,103388.98
2018-02-24T22:54:58.140Z,103390.62
2018-02-24T22:57:25.840Z,103384.66
2018-02-24T22:59:53.552Z,103379.48
2018-02-24T23:02:21.251Z,103385.66
2018-02-24T23:04:48.983Z,103385.02
2018-02-24T23:07:16.685Z,103383.76
2018-02-24T23:09:44.373Z,103390.80
2018-02-24T23:12:12.160Z,103394.13
2018-02-24T23:14:39.843Z,103388.44
2018-02-24T23:17:07.527Z,103389.52
2018-02-24T23:19:35.273Z,103389.05
2018-02-24T23:22:02.953Z,103386.78
2018-02-24T23:24:30.657Z,103384.42
2018-02-24T23:26:58.340Z,103389.13
2018-02-24T23:29:26.042Z,103390.20
2018-02-24T23:31:53.788Z,103393.30
2018-02-24T23:34:21.497Z,103393.94
2018-02-24T23:36:49.220Z,103399.97
2018-02-24T23:39:16.896Z,103401.38
2018-02-24T23:41:44.603Z,103395.13
2018-02-24T23:44:12.280Z,103393.43
2018-02-24T23:46:39.980Z,103394.05
2018-02-24T23:49:07.656Z,103382.29
2018-02-24T23:51:35.399Z,103384.62
2018-02-24T23:54:03.168Z,103386.73
2018-02-24T23:56:30.873Z,103385.63
2018-02-24T23:58:58.548Z,103384.36
